Terminal Aerodrome Forecast
Issued by NWS Sterling, VA

Home | Current Version | Previous Version | Text Only | Print | Product List | Glossary On
Versions: 1 2 3 4 5 6 7 8 9 10 11 12 13 14 15 16 17 18 19 20 21 22 23
000
FTUS41 KLWX 211000 AAB
TAFIAD
TAF AMD
KIAD 211049Z 2111/2212 12003KT 3SM BR SCT250
     FM211400 25006KT P6SM SCT250
     FM212000 25011KT P6SM VCTS BKN060CB
     FM220000 27007KT P6SM BKN250
     FM220600 30007KT 5SM BR SCT250=

USA.gov is the U.S. government's official web portal to all federal, state and local government web resources and services.